sensor_id;sensor_type;location;lat;lon;timestamp;pressure;altitude;pressure_sealevel;temperature
76381;BMP280;65202;52.520;10.528;2024-01-30T00:00:51;102270.94;;;6.22
76381;BMP280;65202;52.520;10.528;2024-01-30T00:03:18;102268.78;;;6.65
76381;BMP280;65202;52.520;10.528;2024-01-30T00:05:46;102266.53;;;6.58
76381;BMP280;65202;52.520;10.528;2024-01-30T00:08:14;102274.13;;;6.69
76381;BMP280;65202;52.520;10.528;2024-01-30T00:10:41;102261.66;;;6.59
76381;BMP280;65202;52.520;10.528;2024-01-30T00:13:09;102259.34;;;6.90
76381;BMP280;65202;52.520;10.528;2024-01-30T00:15:36;102261.47;;;6.96
76381;BMP280;65202;52.520;10.528;2024-01-30T00:18:04;102260.84;;;6.98
76381;BMP280;65202;52.520;10.528;2024-01-30T00:20:31;102257.13;;;7.03
76381;BMP280;65202;52.520;10.528;2024-01-30T00:22:59;102261.34;;;6.94
76381;BMP280;65202;52.520;10.528;2024-01-30T00:25:26;102264.81;;;6.87
76381;BMP280;65202;52.520;10.528;2024-01-30T00:27:53;102260.34;;;6.83
76381;BMP280;65202;52.520;10.528;2024-01-30T00:30:21;102255.59;;;6.95
76381;BMP280;65202;52.520;10.528;2024-01-30T00:32:48;102259.72;;;7.05
76381;BMP280;65202;52.520;10.528;2024-01-30T00:35:16;102250.75;;;7.07
76381;BMP280;65202;52.520;10.528;2024-01-30T00:37:43;102251.63;;;7.07
76381;BMP280;65202;52.520;10.528;2024-01-30T00:40:11;102249.38;;;7.10
76381;BMP280;65202;52.520;10.528;2024-01-30T00:42:43;102246.38;;;7.14
76381;BMP280;65202;52.520;10.528;2024-01-30T00:45:13;102256.38;;;7.04
76381;BMP280;65202;52.520;10.528;2024-01-30T00:47:42;102259.34;;;6.71
76381;BMP280;65202;52.520;10.528;2024-01-30T00:50:10;102257.00;;;6.92
76381;BMP280;65202;52.520;10.528;2024-01-30T00:52:38;102259.03;;;6.48
76381;BMP280;65202;52.520;10.528;2024-01-30T00:55:06;102264.28;;;6.51
76381;BMP280;65202;52.520;10.528;2024-01-30T00:57:34;102262.69;;;6.61
76381;BMP280;65202;52.520;10.528;2024-01-30T01:00:01;102259.31;;;6.13
76381;BMP280;65202;52.520;10.528;2024-01-30T01:02:28;102258.09;;;6.18
76381;BMP280;65202;52.520;10.528;2024-01-30T01:04:56;102258.75;;;6.25
76381;BMP280;65202;52.520;10.528;2024-01-30T01:07:23;102261.94;;;6.14
76381;BMP280;65202;52.520;10.528;2024-01-30T01:09:51;102260.22;;;6.13
76381;BMP280;65202;52.520;10.528;2024-01-30T01:12:19;102268.75;;;6.45
76381;BMP280;65202;52.520;10.528;2024-01-30T01:14:46;102271.03;;;6.14
76381;BMP280;65202;52.520;10.528;2024-01-30T01:17:14;102270.19;;;5.95
76381;BMP280;65202;52.520;10.528;2024-01-30T01:19:41;102267.66;;;5.66
76381;BMP280;65202;52.520;10.528;2024-01-30T01:22:09;102268.53;;;5.85
76381;BMP280;65202;52.520;10.528;2024-01-30T01:24:37;102270.03;;;5.83
76381;BMP280;65202;52.520;10.528;2024-01-30T01:27:05;102271.84;;;5.58
76381;BMP280;65202;52.520;10.528;2024-01-30T01:29:33;102269.75;;;5.44
76381;BMP280;65202;52.520;10.528;2024-01-30T01:32:00;102270.31;;;5.50
76381;BMP280;65202;52.520;10.528;2024-01-30T01:34:27;102267.34;;;5.54
76381;BMP280;65202;52.520;10.528;2024-01-30T01:36:57;102268.78;;;5.70
76381;BMP280;65202;52.520;10.528;2024-01-30T01:39:24;102269.16;;;5.64
76381;BMP280;65202;52.520;10.528;2024-01-30T01:41:52;102271.84;;;5.58
76381;BMP280;65202;52.520;10.528;2024-01-30T01:44:19;102258.59;;;5.67
76381;BMP280;65202;52.520;10.528;2024-01-30T01:46:47;102263.59;;;5.49
76381;BMP280;65202;52.520;10.528;2024-01-30T01:49:15;102266.28;;;5.23
76381;BMP280;65202;52.520;10.528;2024-01-30T01:51:43;102263.91;;;5.06
76381;BMP280;65202;52.520;10.528;2024-01-30T01:54:13;102256.19;;;5.59
76381;BMP280;65202;52.520;10.528;2024-01-30T01:56:42;102251.75;;;5.83
76381;BMP280;65202;52.520;10.528;2024-01-30T01:59:10;102259.72;;;5.89
76381;BMP280;65202;52.520;10.528;2024-01-30T02:01:38;102254.91;;;6.00
76381;BMP280;65202;52.520;10.528;2024-01-30T02:04:08;102247.59;;;6.02
76381;BMP280;65202;52.520;10.528;2024-01-30T02:06:35;102248.03;;;5.88
76381;BMP280;65202;52.520;10.528;2024-01-30T02:09:04;102243.63;;;5.75
76381;BMP280;65202;52.520;10.528;2024-01-30T02:11:31;102240.59;;;5.69
76381;BMP280;65202;52.520;10.528;2024-01-30T02:14:03;102233.78;;;5.49
76381;BMP280;65202;52.520;10.528;2024-01-30T02:16:32;102235.59;;;5.41
76381;BMP280;65202;52.520;10.528;2024-01-30T02:18:59;102225.31;;;5.47
76381;BMP280;65202;52.520;10.528;2024-01-30T02:21:30;102227.03;;;5.66
76381;BMP280;65202;52.520;10.528;2024-01-30T02:23:58;102226.69;;;5.71
76381;BMP280;65202;52.520;10.528;2024-01-30T02:26:26;102223.13;;;5.78
76381;BMP280;65202;52.520;10.528;2024-01-30T02:28:54;102223.66;;;5.84
76381;BMP280;65202;52.520;10.528;2024-01-30T02:31:21;102217.50;;;5.99
76381;BMP280;65202;52.520;10.528;2024-01-30T02:33:49;102217.25;;;5.96
76381;BMP280;65202;52.520;10.528;2024-01-30T02:36:16;102212.16;;;6.04
76381;BMP280;65202;52.520;10.528;2024-01-30T02:38:43;102206.25;;;6.12
76381;BMP280;65202;52.520;10.528;2024-01-30T02:41:13;102209.72;;;6.14
76381;BMP280;65202;52.520;10.528;2024-01-30T02:43:41;102208.63;;;5.82
76381;BMP280;65202;52.520;10.528;2024-01-30T02:46:08;102210.63;;;5.86
76381;BMP280;65202;52.520;10.528;2024-01-30T02:48:36;102206.41;;;5.67
76381;BMP280;65202;52.520;10.528;2024-01-30T02:51:05;102218.44;;;5.81
76381;BMP280;65202;52.520;10.528;2024-01-30T02:53:33;102209.88;;;5.69
76381;BMP280;65202;52.520;10.528;2024-01-30T02:56:01;102213.06;;;5.76
76381;BMP280;65202;52.520;10.528;2024-01-30T02:58:29;102216.31;;;5.39
76381;BMP280;65202;52.520;10.528;2024-01-30T03:00:57;102212.16;;;5.48
76381;BMP280;65202;52.520;10.528;2024-01-30T03:03:24;102212.16;;;5.48
76381;BMP280;65202;52.520;10.528;2024-01-30T03:05:52;102210.22;;;5.35
76381;BMP280;65202;52.520;10.528;2024-01-30T03:08:19;102209.69;;;5.11
76381;BMP280;65202;52.520;10.528;2024-01-30T03:10:47;102212.06;;;4.64
76381;BMP280;65202;52.520;10.528;2024-01-30T03:13:14;102218.31;;;4.88
76381;BMP280;65202;52.520;10.528;2024-01-30T03:15:42;102204.66;;;5.01
76381;BMP280;65202;52.520;10.528;2024-01-30T03:18:09;102199.75;;;5.11
76381;BMP280;65202;52.520;10.528;2024-01-30T03:20:37;102199.22;;;5.05
76381;BMP280;65202;52.520;10.528;2024-01-30T03:23:04;102210.28;;;4.90
76381;BMP280;65202;52.520;10.528;2024-01-30T03:25:32;102191.09;;;4.97
76381;BMP280;65202;52.520;10.528;2024-01-30T03:28:00;102204.50;;;5.18
76381;BMP280;65202;52.520;10.528;2024-01-30T03:30:27;102197.22;;;5.19
76381;BMP280;65202;52.520;10.528;2024-01-30T03:32:55;102195.59;;;5.38
76381;BMP280;65202;52.520;10.528;2024-01-30T03:35:22;102191.06;;;5.53
76381;BMP280;65202;52.520;10.528;2024-01-30T03:37:49;102181.13;;;5.53
76381;BMP280;65202;52.520;10.528;2024-01-30T03:40:17;102191.06;;;5.53
76381;BMP280;65202;52.520;10.528;2024-01-30T03:42:44;102192.94;;;5.37
76381;BMP280;65202;52.520;10.528;2024-01-30T03:45:12;102181.97;;;5.06
76381;BMP280;65202;52.520;10.528;2024-01-30T03:47:43;102190.69;;;5.30
76381;BMP280;65202;52.520;10.528;2024-01-30T03:50:11;102181.84;;;5.05
76381;BMP280;65202;52.520;10.528;2024-01-30T03:52:38;102186.75;;;4.77
76381;BMP280;65202;52.520;10.528;2024-01-30T03:55:06;102182.44;;;5.02
76381;BMP280;65202;52.520;10.528;2024-01-30T03:57:34;102187.38;;;4.66
76381;BMP280;65202;52.520;10.528;2024-01-30T04:00:01;102190.41;;;4.90
76381;BMP280;65202;52.520;10.528;2024-01-30T04:02:38;102179.34;;;5.05
76381;BMP280;65202;52.520;10.528;2024-01-30T04:05:06;102177.09;;;4.98
76381;BMP280;65202;52.520;10.528;2024-01-30T04:07:34;102181.19;;;4.79
76381;BMP280;65202;52.520;10.528;2024-01-30T04:10:01;102179.16;;;5.12
76381;BMP280;65202;52.520;10.528;2024-01-30T04:12:31;102180.22;;;5.24
76381;BMP280;65202;52.520;10.528;2024-01-30T04:14:59;102177.78;;;5.34
76381;BMP280;65202;52.520;10.528;2024-01-30T04:17:26;102176.41;;;5.09
76381;BMP280;65202;52.520;10.528;2024-01-30T04:19:56;102183.66;;;5.16
76381;BMP280;65202;52.520;10.528;2024-01-30T04:22:23;102183.97;;;5.29
76381;BMP280;65202;52.520;10.528;2024-01-30T04:24:51;102187.06;;;5.26
76381;BMP280;65202;52.520;10.528;2024-01-30T04:27:18;102179.97;;;5.21
76381;BMP280;65202;52.520;10.528;2024-01-30T04:29:46;102182.16;;;5.18
76381;BMP280;65202;52.520;10.528;2024-01-30T04:32:13;102177.19;;;5.36
76381;BMP280;65202;52.520;10.528;2024-01-30T04:34:41;102174.88;;;5.48
76381;BMP280;65202;52.520;10.528;2024-01-30T04:37:10;102177.69;;;5.61
76381;BMP280;65202;52.520;10.528;2024-01-30T04:39:37;102179.22;;;5.68
76381;BMP280;65202;52.520;10.528;2024-01-30T04:42:05;102181.78;;;5.78
76381;BMP280;65202;52.520;10.528;2024-01-30T04:44:35;102184.25;;;5.78
76381;BMP280;65202;52.520;10.528;2024-01-30T04:47:03;102178.19;;;5.85
76381;BMP280;65202;52.520;10.528;2024-01-30T04:49:33;102177.03;;;5.81
76381;BMP280;65202;52.520;10.528;2024-01-30T04:52:01;102175.03;;;5.77
76381;BMP280;65202;52.520;10.528;2024-01-30T04:54:28;102172.09;;;5.91
76381;BMP280;65202;52.520;10.528;2024-01-30T04:56:55;102177.06;;;5.91
76381;BMP280;65202;52.520;10.528;2024-01-30T04:59:23;102171.88;;;5.88
76381;BMP280;65202;52.520;10.528;2024-01-30T05:01:50;102161.03;;;5.88
76381;BMP280;65202;52.520;10.528;2024-01-30T05:04:18;102167.63;;;5.87
76381;BMP280;65202;52.520;10.528;2024-01-30T05:06:46;102171.25;;;5.72
76381;BMP280;65202;52.520;10.528;2024-01-30T05:09:13;102174.75;;;5.46
76381;BMP280;65202;52.520;10.528;2024-01-30T05:11:41;102171.59;;;5.85
76381;BMP280;65202;52.520;10.528;2024-01-30T05:14:08;102168.75;;;5.91
76381;BMP280;65202;52.520;10.528;2024-01-30T05:16:36;102164.44;;;5.98
76381;BMP280;65202;52.520;10.528;2024-01-30T05:19:04;102173.97;;;5.37
76381;BMP280;65202;52.520;10.528;2024-01-30T05:21:32;102168.94;;;5.46
76381;BMP280;65202;52.520;10.528;2024-01-30T05:23:59;102170.41;;;5.72
76381;BMP280;65202;52.520;10.528;2024-01-30T05:26:27;102166.91;;;5.70
76381;BMP280;65202;52.520;10.528;2024-01-30T05:28:54;102164.53;;;5.71
76381;BMP280;65202;52.520;10.528;2024-01-30T05:31:21;102168.84;;;5.82
76381;BMP280;65202;52.520;10.528;2024-01-30T05:33:49;102172.75;;;5.70
76381;BMP280;65202;52.520;10.528;2024-01-30T05:36:17;102167.09;;;5.81
76381;BMP280;65202;52.520;10.528;2024-01-30T05:38:44;102176.81;;;5.78
76381;BMP280;65202;52.520;10.528;2024-01-30T05:41:11;102166.56;;;5.75
76381;BMP280;65202;52.520;10.528;2024-01-30T05:43:39;102168.75;;;5.62
76381;BMP280;65202;52.520;10.528;2024-01-30T05:46:06;102160.19;;;5.69
76381;BMP280;65202;52.520;10.528;2024-01-30T05:48:34;102171.88;;;5.88
76381;BMP280;65202;52.520;10.528;2024-01-30T05:51:02;102166.63;;;5.85
76381;BMP280;65202;52.520;10.528;2024-01-30T05:53:31;102161.91;;;5.88
76381;BMP280;65202;52.520;10.528;2024-01-30T05:56:01;102163.34;;;5.76
76381;BMP280;65202;52.520;10.528;2024-01-30T05:58:29;102157.44;;;5.84
76381;BMP280;65202;52.520;10.528;2024-01-30T06:00:58;102163.94;;;5.74
76381;BMP280;65202;52.520;10.528;2024-01-30T06:03:25;102162.66;;;5.87
76381;BMP280;65202;52.520;10.528;2024-01-30T06:05:53;102161.16;;;5.79
76381;BMP280;65202;52.520;10.528;2024-01-30T06:08:20;102153.63;;;5.69
76381;BMP280;65202;52.520;10.528;2024-01-30T06:10:48;102152.50;;;5.66
76381;BMP280;65202;52.520;10.528;2024-01-30T06:13:16;102156.03;;;5.78
76381;BMP280;65202;52.520;10.528;2024-01-30T06:15:43;102159.53;;;5.80
76381;BMP280;65202;52.520;10.528;2024-01-30T06:18:11;102157.16;;;5.81
76381;BMP280;65202;52.520;10.528;2024-01-30T06:20:38;102157.44;;;5.84
76381;BMP280;65202;52.520;10.528;2024-01-30T06:23:06;102150.84;;;5.66
76381;BMP280;65202;52.520;10.528;2024-01-30T06:25:33;102149.59;;;5.80
76381;BMP280;65202;52.520;10.528;2024-01-30T06:28:01;102157.28;;;5.83
76381;BMP280;65202;52.520;10.528;2024-01-30T06:30:28;102154.94;;;5.56
76381;BMP280;65202;52.520;10.528;2024-01-30T06:32:56;102149.38;;;5.68
76381;BMP280;65202;52.520;10.528;2024-01-30T06:35:23;102143.16;;;5.63
76381;BMP280;65202;52.520;10.528;2024-01-30T06:37:51;102149.38;;;5.68
76381;BMP280;65202;52.520;10.528;2024-01-30T06:40:18;102141.03;;;5.86
76381;BMP280;65202;52.520;10.528;2024-01-30T06:42:46;102140.50;;;5.80
76381;BMP280;65202;52.520;10.528;2024-01-30T06:45:13;102145.75;;;5.83
76381;BMP280;65202;52.520;10.528;2024-01-30T06:47:42;102144.84;;;5.83
76381;BMP280;65202;52.520;10.528;2024-01-30T06:50:09;102146.47;;;5.82
76381;BMP280;65202;52.520;10.528;2024-01-30T06:52:37;102142.78;;;5.87
76381;BMP280;65202;52.520;10.528;2024-01-30T06:55:04;102147.50;;;5.94
76381;BMP280;65202;52.520;10.528;2024-01-30T06:57:32;102153.72;;;5.89
76381;BMP280;65202;52.520;10.528;2024-01-30T06:59:59;102155.72;;;5.93
76381;BMP280;65202;52.520;10.528;2024-01-30T07:02:27;102150.97;;;5.86
76381;BMP280;65202;52.520;10.528;2024-01-30T07:04:54;102146.59;;;5.84
76381;BMP280;65202;52.520;10.528;2024-01-30T07:07:22;102141.19;;;5.69
76381;BMP280;65202;52.520;10.528;2024-01-30T07:09:50;102140.25;;;5.77
76381;BMP280;65202;52.520;10.528;2024-01-30T07:12:23;102141.28;;;5.79
76381;BMP280;65202;52.520;10.528;2024-01-30T07:14:52;102141.03;;;5.86
76381;BMP280;65202;52.520;10.528;2024-01-30T07:17:20;102133.03;;;5.80
76381;BMP280;65202;52.520;10.528;2024-01-30T07:19:47;102134.91;;;5.83
76381;BMP280;65202;52.520;10.528;2024-01-30T07:22:15;102134.31;;;5.95
76381;BMP280;65202;52.520;10.528;2024-01-30T07:24:43;102133.69;;;5.88
76381;BMP280;65202;52.520;10.528;2024-01-30T07:27:15;102136.06;;;5.96
76381;BMP280;65202;52.520;10.528;2024-01-30T07:29:44;102137.41;;;5.83
76381;BMP280;65202;52.520;10.528;2024-01-30T07:32:12;102132.81;;;5.87
76381;BMP280;65202;52.520;10.528;2024-01-30T07:34:39;102144.53;;;5.88
76381;BMP280;65202;52.520;10.528;2024-01-30T07:37:25;102139.88;;;5.83
76381;BMP280;65202;52.520;10.528;2024-01-30T07:39:52;102132.13;;;5.98
76381;BMP280;65202;52.520;10.528;2024-01-30T07:42:20;102135.09;;;6.14
76381;BMP280;65202;52.520;10.528;2024-01-30T07:44:47;102135.72;;;6.12
76381;BMP280;65202;52.520;10.528;2024-01-30T07:47:15;102130.91;;;6.13
76381;BMP280;65202;52.520;10.528;2024-01-30T07:49:42;102136.13;;;6.26
76381;BMP280;65202;52.520;10.528;2024-01-30T07:52:10;102131.88;;;6.25
76381;BMP280;65202;52.520;10.528;2024-01-30T07:54:37;102128.56;;;6.44
76381;BMP280;65202;52.520;10.528;2024-01-30T07:57:06;102133.16;;;6.50
76381;BMP280;65202;52.520;10.528;2024-01-30T07:59:33;102138.47;;;6.64
76381;BMP280;65202;52.520;10.528;2024-01-30T08:02:09;102131.41;;;6.69
76381;BMP280;65202;52.520;10.528;2024-01-30T08:04:37;102137.13;;;6.58
76381;BMP280;65202;52.520;10.528;2024-01-30T08:07:05;102132.63;;;6.84
76381;BMP280;65202;52.520;10.528;2024-01-30T08:09:32;102127.25;;;6.89
76381;BMP280;65202;52.520;10.528;2024-01-30T08:12:00;102121.78;;;6.83
76381;BMP280;65202;52.520;10.528;2024-01-30T08:14:27;102128.47;;;7.04
76381;BMP280;65202;52.520;10.528;2024-01-30T08:16:55;102131.97;;;7.06
76381;BMP280;65202;52.520;10.528;2024-01-30T08:19:22;102130.16;;;7.25
76381;BMP280;65202;52.520;10.528;2024-01-30T08:21:50;102130.69;;;7.21
76381;BMP280;65202;52.520;10.528;2024-01-30T08:24:17;102126.66;;;7.33
76381;BMP280;65202;52.520;10.528;2024-01-30T08:26:45;102133.81;;;7.50
76381;BMP280;65202;52.520;10.528;2024-01-30T08:29:12;102136.41;;;7.51
76381;BMP280;65202;52.520;10.528;2024-01-30T08:31:40;102133.06;;;7.72
76381;BMP280;65202;52.520;10.528;2024-01-30T08:34:07;102134.28;;;7.98
76381;BMP280;65202;52.520;10.528;2024-01-30T08:36:36;102137.06;;;8.13
76381;BMP280;65202;52.520;10.528;2024-01-30T08:39:03;102125.97;;;8.19
76381;BMP280;65202;52.520;10.528;2024-01-30T08:41:32;102129.25;;;8.29
76381;BMP280;65202;52.520;10.528;2024-01-30T08:44:00;102122.34;;;8.48
76381;BMP280;65202;52.520;10.528;2024-01-30T08:46:28;102122.34;;;8.48
76381;BMP280;65202;52.520;10.528;2024-01-30T08:48:56;102115.34;;;8.66
76381;BMP280;65202;52.520;10.528;2024-01-30T08:51:23;102111.94;;;8.42
76381;BMP280;65202;52.520;10.528;2024-01-30T08:53:51;102104.50;;;8.65
76381;BMP280;65202;52.520;10.528;2024-01-30T08:56:19;102106.88;;;8.75
76381;BMP280;65202;52.520;10.528;2024-01-30T08:58:46;102105.91;;;8.73
76381;BMP280;65202;52.520;10.528;2024-01-30T09:01:14;102108.09;;;8.80
76381;BMP280;65202;52.520;10.528;2024-01-30T09:03:42;102103.91;;;8.46
76381;BMP280;65202;52.520;10.528;2024-01-30T09:06:12;102094.84;;;8.81
76381;BMP280;65202;52.520;10.528;2024-01-30T09:08:40;102097.75;;;8.76
76381;BMP280;65202;52.520;10.528;2024-01-30T09:11:14;102091.81;;;8.85
76381;BMP280;65202;52.520;10.528;2024-01-30T09:13:42;102095.50;;;8.78
76381;BMP280;65202;52.520;10.528;2024-01-30T09:16:10;102095.59;;;8.80
76381;BMP280;65202;52.520;10.528;2024-01-30T09:18:38;102099.84;;;8.81
76381;BMP280;65202;52.520;10.528;2024-01-30T09:21:06;102102.44;;;8.71
76381;BMP280;65202;52.520;10.528;2024-01-30T09:23:33;102107.81;;;8.54
76381;BMP280;65202;52.520;10.528;2024-01-30T09:26:01;102111.03;;;8.75
76381;BMP280;65202;52.520;10.528;2024-01-30T09:28:28;102108.09;;;8.80
76381;BMP280;65202;52.520;10.528;2024-01-30T09:30:56;102110.47;;;8.67
76381;BMP280;65202;52.520;10.528;2024-01-30T09:33:23;102098.31;;;8.94
76381;BMP280;65202;52.520;10.528;2024-01-30T09:35:51;102099.84;;;8.92
76381;BMP280;65202;52.520;10.528;2024-01-30T09:38:18;102096.81;;;8.96
76381;BMP280;65202;52.520;10.528;2024-01-30T09:40:53;102106.25;;;9.12
76381;BMP280;65202;52.520;10.528;2024-01-30T09:43:25;102105.91;;;9.30
76381;BMP280;65202;52.520;10.528;2024-01-30T09:46:02;102096.81;;;9.66
76381;BMP280;65202;52.520;10.528;2024-01-30T09:48:30;102107.25;;;9.61
76381;BMP280;65202;52.520;10.528;2024-01-30T09:50:58;102094.94;;;9.75
76381;BMP280;65202;52.520;10.528;2024-01-30T09:53:26;102097.72;;;9.91
76381;BMP280;65202;52.520;10.528;2024-01-30T09:55:53;102105.13;;;9.78
76381;BMP280;65202;52.520;10.528;2024-01-30T09:58:21;102093.66;;;9.93
76381;BMP280;65202;52.520;10.528;2024-01-30T10:00:49;102089.03;;;9.86
76381;BMP280;65202;52.520;10.528;2024-01-30T10:03:16;102094.09;;;9.63
76381;BMP280;65202;52.520;10.528;2024-01-30T10:05:52;102087.72;;;10.40
76381;BMP280;65202;52.520;10.528;2024-01-30T10:08:20;102085.97;;;10.39
76381;BMP280;65202;52.520;10.528;2024-01-30T10:10:48;102077.41;;;10.48
76381;BMP280;65202;52.520;10.528;2024-01-30T10:13:17;102073.31;;;10.87
76381;BMP280;65202;52.520;10.528;2024-01-30T10:15:44;102072.25;;;10.71
76381;BMP280;65202;52.520;10.528;2024-01-30T10:18:12;102073.88;;;10.70
76381;BMP280;65202;52.520;10.528;2024-01-30T10:20:40;102071.28;;;10.56
76381;BMP280;65202;52.520;10.528;2024-01-30T10:23:08;102065.38;;;10.56
76381;BMP280;65202;52.520;10.528;2024-01-30T10:25:37;102072.22;;;10.58
76381;BMP280;65202;52.520;10.528;2024-01-30T10:28:05;102072.72;;;10.66
76381;BMP280;65202;52.520;10.528;2024-01-30T10:30:33;102068.78;;;10.69
76381;BMP280;65202;52.520;10.528;2024-01-30T10:33:01;102067.97;;;10.57
76381;BMP280;65202;52.520;10.528;2024-01-30T10:35:29;102070.78;;;10.74
76381;BMP280;65202;52.520;10.528;2024-01-30T10:37:57;102073.78;;;10.82
76381;BMP280;65202;52.520;10.528;2024-01-30T10:40:29;102072.75;;;10.91
76381;BMP280;65202;52.520;10.528;2024-01-30T10:42:58;102065.38;;;11.07
76381;BMP280;65202;52.520;10.528;2024-01-30T10:45:31;102064.34;;;11.04
76381;BMP280;65202;52.520;10.528;2024-01-30T10:48:01;102057.09;;;11.08
76381;BMP280;65202;52.520;10.528;2024-01-30T10:50:32;102055.16;;;11.17
76381;BMP280;65202;52.520;10.528;2024-01-30T10:53:01;102066.56;;;10.99
76381;BMP280;65202;52.520;10.528;2024-01-30T10:55:31;102061.84;;;11.04
76381;BMP280;65202;52.520;10.528;2024-01-30T10:58:00;102063.84;;;10.83
76381;BMP280;65202;52.520;10.528;2024-01-30T11:00:27;102062.44;;;10.74
76381;BMP280;65202;52.520;10.528;2024-01-30T11:02:55;102057.69;;;10.78
76381;BMP280;65202;52.520;10.528;2024-01-30T11:05:24;102055.28;;;10.67
76381;BMP280;65202;52.520;10.528;2024-01-30T11:08:10;102055.19;;;10.53
76381;BMP280;65202;52.520;10.528;2024-01-30T11:10:48;102052.38;;;10.48
76381;BMP280;65202;52.520;10.528;2024-01-30T11:13:16;102046.31;;;10.58
76381;BMP280;65202;52.520;10.528;2024-01-30T11:15:47;102043.41;;;10.65
76381;BMP280;65202;52.520;10.528;2024-01-30T11:18:26;102048.44;;;10.52
76381;BMP280;65202;52.520;10.528;2024-01-30T11:20:58;102046.09;;;10.42
76381;BMP280;65202;52.520;10.528;2024-01-30T11:23:28;102037.25;;;10.34
76381;BMP280;65202;52.520;10.528;2024-01-30T11:25:56;102044.19;;;10.38
76381;BMP280;65202;52.520;10.528;2024-01-30T11:28:32;102034.16;;;10.38
76381;BMP280;65202;52.520;10.528;2024-01-30T11:31:06;102038.31;;;10.37
76381;BMP280;65202;52.520;10.528;2024-01-30T11:33:34;102041.09;;;10.42
76381;BMP280;65202;52.520;10.528;2024-01-30T11:36:02;102039.47;;;10.42
76381;BMP280;65202;52.520;10.528;2024-01-30T11:38:30;102039.44;;;10.29
76381;BMP280;65202;52.520;10.528;2024-01-30T11:40:57;102028.00;;;10.46
76381;BMP280;65202;52.520;10.528;2024-01-30T11:43:25;102030.91;;;10.39
76381;BMP280;65202;52.520;10.528;2024-01-30T11:45:53;102034.34;;;10.41
76381;BMP280;65202;52.520;10.528;2024-01-30T11:48:20;102026.47;;;10.48
76381;BMP280;65202;52.520;10.528;2024-01-30T11:50:48;102027.06;;;10.44
76381;BMP280;65202;52.520;10.528;2024-01-30T11:53:17;102032.63;;;10.40
76381;BMP280;65202;52.520;10.528;2024-01-30T11:55:51;102023.38;;;10.39
76381;BMP280;65202;52.520;10.528;2024-01-30T11:58:18;102012.78;;;10.43
76381;BMP280;65202;52.520;10.528;2024-01-30T12:00:53;102019.31;;;10.41
76381;BMP280;65202;52.520;10.528;2024-01-30T12:03:23;102016.25;;;10.45
76381;BMP280;65202;52.520;10.528;2024-01-30T12:05:57;102020.69;;;10.49
76381;BMP280;65202;52.520;10.528;2024-01-30T12:08:26;102021.94;;;10.42
76381;BMP280;65202;52.520;10.528;2024-01-30T12:10:57;102022.81;;;10.43
76381;BMP280;65202;52.520;10.528;2024-01-30T12:13:33;102022.41;;;10.37
76381;BMP280;65202;52.520;10.528;2024-01-30T12:16:03;102023.47;;;10.40
76381;BMP280;65202;52.520;10.528;2024-01-30T12:18:31;102018.47;;;10.40
76381;BMP280;65202;52.520;10.528;2024-01-30T12:20:59;102020.47;;;10.33
76381;BMP280;65202;52.520;10.528;2024-01-30T12:23:28;102024.25;;;10.39
76381;BMP280;65202;52.520;10.528;2024-01-30T12:25:55;102019.53;;;10.44
76381;BMP280;65202;52.520;10.528;2024-01-30T12:28:23;102018.66;;;10.43
76381;BMP280;65202;52.520;10.528;2024-01-30T12:30:55;102008.81;;;10.33
76381;BMP280;65202;52.520;10.528;2024-01-30T12:33:26;102016.06;;;10.42
76381;BMP280;65202;52.520;10.528;2024-01-30T12:35:56;102009.88;;;10.37
76381;BMP280;65202;52.520;10.528;2024-01-30T12:38:30;102006.81;;;10.41
76381;BMP280;65202;52.520;10.528;2024-01-30T12:40:58;102008.38;;;10.52
76381;BMP280;65202;52.520;10.528;2024-01-30T12:43:25;102007.28;;;10.48
76381;BMP280;65202;52.520;10.528;2024-01-30T12:46:05;102003.53;;;10.55
76381;BMP280;65202;52.520;10.528;2024-01-30T12:48:33;102008.66;;;10.56
76381;BMP280;65202;52.520;10.528;2024-01-30T12:51:01;102003.53;;;10.55
76381;BMP280;65202;52.520;10.528;2024-01-30T12:53:29;101996.16;;;10.56
76381;BMP280;65202;52.520;10.528;2024-01-30T12:55:56;101988.81;;;10.59
76381;BMP280;65202;52.520;10.528;2024-01-30T12:58:23;102003.94;;;10.61
76381;BMP280;65202;52.520;10.528;2024-01-30T13:00:51;102003.25;;;10.63
76381;BMP280;65202;52.520;10.528;2024-01-30T13:03:21;102000.47;;;10.97
76381;BMP280;65202;52.520;10.528;2024-01-30T13:05:49;101997.50;;;11.17
76381;BMP280;65202;52.520;10.528;2024-01-30T13:08:17;102004.09;;;11.15
76381;BMP280;65202;52.520;10.528;2024-01-30T13:10:45;102002.91;;;11.23
76381;BMP280;65202;52.520;10.528;2024-01-30T13:13:16;102018.06;;;11.12
76381;BMP280;65202;52.520;10.528;2024-01-30T13:15:48;102001.97;;;11.08
76381;BMP280;65202;52.520;10.528;2024-01-30T13:18:15;102000.78;;;11.29
76381;BMP280;65202;52.520;10.528;2024-01-30T13:20:43;102011.34;;;11.38
76381;BMP280;65202;52.520;10.528;2024-01-30T13:23:11;102006.63;;;11.29
76381;BMP280;65202;52.520;10.528;2024-01-30T13:25:38;102006.38;;;11.25
76381;BMP280;65202;52.520;10.528;2024-01-30T13:28:06;102007.16;;;11.24
76381;BMP280;65202;52.520;10.528;2024-01-30T13:30:33;102009.28;;;11.18
76381;BMP280;65202;52.520;10.528;2024-01-30T13:33:01;102007.44;;;11.29
76381;BMP280;65202;52.520;10.528;2024-01-30T13:35:30;102008.03;;;11.12
76381;BMP280;65202;52.520;10.528;2024-01-30T13:37:58;102007.53;;;11.17
76381;BMP280;65202;52.520;10.528;2024-01-30T13:40:25;101999.25;;;11.18
76381;BMP280;65202;52.520;10.528;2024-01-30T13:42:53;102010.44;;;11.10
76381;BMP280;65202;52.520;10.528;2024-01-30T13:45:21;102011.81;;;11.05
76381;BMP280;65202;52.520;10.528;2024-01-30T13:47:50;102013.16;;;11.00
76381;BMP280;65202;52.520;10.528;2024-01-30T13:50:18;102020.38;;;10.96
76381;BMP280;65202;52.520;10.528;2024-01-30T13:52:45;102014.34;;;10.92
76381;BMP280;65202;52.520;10.528;2024-01-30T13:55:13;102012.03;;;10.82
76381;BMP280;65202;52.520;10.528;2024-01-30T13:57:41;102016.38;;;10.85
76381;BMP280;65202;52.520;10.528;2024-01-30T14:00:10;102016.63;;;10.89